Time;durP1;ratioP1;P1;durP2;ratioP2;P2;SDS_P1;SDS_P2;PMS_P1;PMS_P2;Temp;Humidity;BMP_temperature;BMP_pressure;BME280_temperature;BME280_humidity;BME280_pressure;Samples;Min_cycle;Max_cycle;Signal;HPM_P1;HPM_P2
2021/07/27 00:00:56;;;;;;;2.87;2.53;;;;;;;;;;5024353;28;20299;-82
2021/07/27 00:03:25;;;;;;;3.20;2.40;;;;;;;;;;5034701;28;20587;-82
2021/07/27 00:05:53;;;;;;;3.28;2.25;;;;;;;;;;5034407;28;20276;-82
2021/07/27 00:08:18;;;;;;;3.70;2.33;;;;;;;;;;5035211;28;20018;-82
2021/07/27 00:10:45;;;;;;;3.10;2.40;;;;;;;;;;5034906;28;20017;-82
2021/07/27 00:13:11;;;;;;;3.28;2.42;;;;;;;;;;5034411;28;20560;-82
2021/07/27 00:15:36;;;;;;;3.47;2.30;;;;;;;;;;5033933;28;20044;-82
2021/07/27 00:18:01;;;;;;;3.72;2.25;;;;;;;;;;5034458;28;20271;-82
2021/07/27 00:20:28;;;;;;;2.15;1.95;;;;;;;;;;5033824;28;20112;-82
2021/07/27 00:22:54;;;;;;;2.92;2.47;;;;;;;;;;5034187;28;20041;-82
2021/07/27 00:25:24;;;;;;;2.80;2.30;;;;;;;;;;5033278;28;20130;-82
2021/07/27 00:27:49;;;;;;;2.42;2.22;;;;;;;;;;5033933;28;20026;-82
2021/07/27 00:30:17;;;;;;;4.40;2.70;;;;;;;;;;5033275;28;20017;-82
2021/07/27 00:32:43;;;;;;;2.50;1.92;;;;;;;;;;5033912;28;20710;-82
2021/07/27 00:35:12;;;;;;;2.40;2.20;;;;;;;;;;5033701;28;20073;-82
2021/07/27 00:37:41;;;;;;;2.63;2.42;;;;;;;;;;5033942;28;20042;-82
2021/07/27 00:40:07;;;;;;;5.25;2.53;;;;;;;;;;5013335;28;20018;-82
2021/07/27 00:42:42;;;;;;;2.92;2.45;;;;;;;;;;5013820;28;20036;-82
2021/07/27 00:45:10;;;;;;;2.75;2.55;;;;;;;;;;5013317;28;20030;-82
2021/07/27 00:47:36;;;;;;;4.20;2.38;;;;;;;;;;5014450;28;20026;-82
2021/07/27 00:50:07;;;;;;;2.60;2.40;;;;;;;;;;5014461;28;20021;-82
2021/07/27 00:52:32;;;;;;;2.80;2.60;;;;;;;;;;5032436;28;20049;-82
2021/07/27 00:54:57;;;;;;;2.60;2.40;;;;;;;;;;5018768;28;20065;-82
2021/07/27 00:57:23;;;;;;;2.70;2.30;;;;;;;;;;5031922;28;20125;-82
2021/07/27 00:59:49;;;;;;;2.78;2.47;;;;;;;;;;5016820;28;20411;-82
2021/07/27 01:02:14;;;;;;;3.15;2.92;;;;;;;;;;5030319;28;20025;-82
2021/07/27 01:04:41;;;;;;;2.80;2.50;;;;;;;;;;5033734;28;20078;-82
2021/07/27 01:07:11;;;;;;;2.90;2.70;;;;;;;;;;5033818;28;20641;-82
2021/07/27 01:09:37;;;;;;;2.60;2.20;;;;;;;;;;5028592;28;20017;-82
2021/07/27 01:12:02;;;;;;;3.28;2.33;;;;;;;;;;5013645;28;20372;-82
2021/07/27 01:14:27;;;;;;;3.08;2.22;;;;;;;;;;5014197;28;20028;-82
2021/07/27 01:16:53;;;;;;;2.60;2.33;;;;;;;;;;5019182;28;20356;-82
2021/07/27 01:19:30;;;;;;;2.88;2.53;;;;;;;;;;5013065;28;20719;-82
2021/07/27 01:43:39;;;;;;;3.22;2.78;;;;;;;;;;5033278;28;20350;-80
2021/07/27 01:46:04;;;;;;;2.75;2.55;;;;;;;;;;5033595;28;20025;-79
2021/07/27 01:48:31;;;;;;;2.92;2.67;;;;;;;;;;5032675;28;20022;-80
2021/07/27 01:50:58;;;;;;;3.17;2.53;;;;;;;;;;5033107;28;20059;-80
2021/07/27 01:53:33;;;;;;;3.38;2.53;;;;;;;;;;5017249;28;20033;-80
2021/07/27 01:55:58;;;;;;;3.05;2.53;;;;;;;;;;5020313;28;20014;-80
2021/07/27 01:58:25;;;;;;;4.10;2.47;;;;;;;;;;5033116;28;20014;-79
2021/07/27 02:00:51;;;;;;;3.08;2.55;;;;;;;;;;5023484;28;20021;-80
2021/07/27 02:03:18;;;;;;;3.20;2.90;;;;;;;;;;5027104;28;20365;-79
2021/07/27 02:05:44;;;;;;;3.60;3.08;;;;;;;;;;5013508;28;20097;-80
2021/07/27 02:08:09;;;;;;;3.33;2.65;;;;;;;;;;5025882;28;20471;-80
2021/07/27 02:10:38;;;;;;;2.63;2.42;;;;;;;;;;5032508;28;20021;-80
2021/07/27 02:13:25;;;;;;;5.68;3.00;;;;;;;;;;5033480;28;20359;-80
2021/07/27 02:15:50;;;;;;;4.75;2.65;;;;;;;;;;5033321;28;20055;-80
2021/07/27 02:18:17;;;;;;;4.23;2.83;;;;;;;;;;5032593;28;20064;-80
2021/07/27 02:20:43;;;;;;;4.00;2.80;;;;;;;;;;5033002;28;20271;-80
2021/07/27 02:23:08;;;;;;;3.20;2.90;;;;;;;;;;5022423;28;20014;-79
2021/07/27 02:25:33;;;;;;;2.80;2.60;;;;;;;;;;5013305;28;20731;-79
2021/07/27 02:27:58;;;;;;;3.50;2.70;;;;;;;;;;5013181;28;20264;-79
2021/07/27 02:30:27;;;;;;;3.45;2.67;;;;;;;;;;5026100;28;20351;-79
2021/07/27 02:32:52;;;;;;;3.28;2.60;;;;;;;;;;5031787;28;20148;-80
2021/07/27 02:35:20;;;;;;;5.13;3.03;;;;;;;;;;5013830;28;20046;-80
2021/07/27 02:37:47;;;;;;;3.58;2.85;;;;;;;;;;5013038;28;20030;-80
2021/07/27 02:40:13;;;;;;;4.93;3.15;;;;;;;;;;5013502;28;20022;-80
2021/07/27 02:42:38;;;;;;;3.80;3.30;;;;;;;;;;5013214;28;20034;-80
2021/07/27 02:45:08;;;;;;;3.78;3.30;;;;;;;;;;5013667;28;20101;-80
2021/07/27 02:47:33;;;;;;;3.00;2.70;;;;;;;;;;5012775;28;20092;-80
2021/07/27 02:50:01;;;;;;;5.03;2.90;;;;;;;;;;5013038;28;20025;-80
2021/07/27 02:52:26;;;;;;;3.92;3.28;;;;;;;;;;5014637;28;20515;-80
2021/07/27 02:54:51;;;;;;;5.20;3.00;;;;;;;;;;5032062;28;20022;-80
2021/07/27 02:57:17;;;;;;;4.38;3.08;;;;;;;;;;5032080;28;20043;-80
2021/07/27 02:59:42;;;;;;;5.65;3.40;;;;;;;;;;5030507;28;20083;-80
2021/07/27 03:02:07;;;;;;;4.63;2.90;;;;;;;;;;5029898;28;20352;-80
2021/07/27 03:04:33;;;;;;;3.45;2.80;;;;;;;;;;5034643;28;20029;-80
2021/07/27 03:06:58;;;;;;;4.20;2.90;;;;;;;;;;5035845;28;20060;-80
2021/07/27 03:09:25;;;;;;;3.38;2.90;;;;;;;;;;5036506;28;20080;-80
2021/07/27 03:11:53;;;;;;;4.30;3.03;;;;;;;;;;5036236;28;20040;-80
2021/07/27 03:14:18;;;;;;;3.80;3.17;;;;;;;;;;5036162;28;20029;-80
2021/07/27 03:16:43;;;;;;;4.70;3.10;;;;;;;;;;5019470;28;20037;-80
2021/07/27 03:19:08;;;;;;;3.47;3.17;;;;;;;;;;5016389;28;20024;-80
2021/07/27 03:21:33;;;;;;;4.10;3.20;;;;;;;;;;5016441;28;20245;-80
2021/07/27 03:23:59;;;;;;;3.63;3.33;;;;;;;;;;5032838;28;20268;-80
2021/07/27 03:26:24;;;;;;;4.05;3.05;;;;;;;;;;5035120;28;20025;-80
2021/07/27 03:28:50;;;;;;;4.00;3.42;;;;;;;;;;5029930;28;20029;-80
2021/07/27 03:31:15;;;;;;;6.22;3.17;;;;;;;;;;5033352;28;20029;-80
2021/07/27 03:33:43;;;;;;;4.05;3.13;;;;;;;;;;5029839;28;20530;-79
2021/07/27 03:36:08;;;;;;;3.85;3.30;;;;;;;;;;5035026;28;20021;-80
2021/07/27 03:38:37;;;;;;;6.93;3.63;;;;;;;;;;5023166;28;20088;-80
2021/07/27 03:41:03;;;;;;;4.38;3.40;;;;;;;;;;5015185;28;20018;-80
2021/07/27 03:43:31;;;;;;;3.50;3.20;;;;;;;;;;5015647;28;20025;-79
2021/07/27 03:45:56;;;;;;;3.88;3.10;;;;;;;;;;5015819;28;20444;-79
2021/07/27 03:48:22;;;;;;;4.70;3.28;;;;;;;;;;5016161;28;20056;-79
2021/07/27 03:50:47;;;;;;;3.97;3.57;;;;;;;;;;5029779;28;20045;-81
2021/07/27 03:53:16;;;;;;;4.60;3.63;;;;;;;;;;5035550;28;20325;-79
2021/07/27 03:55:46;;;;;;;3.72;3.33;;;;;;;;;;5035483;28;20260;-79
2021/07/27 03:58:12;;;;;;;3.88;3.30;;;;;;;;;;5032986;28;20017;-79
2021/07/27 04:00:39;;;;;;;3.72;3.35;;;;;;;;;;5015504;28;20409;-80
2021/07/27 04:03:07;;;;;;;5.30;3.45;;;;;;;;;;5018009;28;20017;-79
2021/07/27 04:05:33;;;;;;;5.20;3.65;;;;;;;;;;5015318;28;20025;-79
2021/07/27 04:08:00;;;;;;;3.65;3.30;;;;;;;;;;5014843;28;20036;-80
2021/07/27 04:10:26;;;;;;;4.43;3.20;;;;;;;;;;5014298;28;20092;-79
2021/07/27 04:12:51;;;;;;;4.70;3.90;;;;;;;;;;5014932;28;20022;-79
2021/07/27 04:15:17;;;;;;;4.00;3.60;;;;;;;;;;5015428;28;20037;-79
2021/07/27 04:17:42;;;;;;;5.30;3.38;;;;;;;;;;5014889;28;20056;-79
2021/07/27 04:20:07;;;;;;;5.10;3.45;;;;;;;;;;5015088;28;20424;-80
2021/07/27 04:22:35;;;;;;;4.55;3.88;;;;;;;;;;5028188;28;20021;-80
2021/07/27 04:25:02;;;;;;;4.70;3.67;;;;;;;;;;5034734;28;20045;-80
2021/07/27 04:27:28;;;;;;;4.22;3.83;;;;;;;;;;5022704;28;20364;-80
2021/07/27 04:29:53;;;;;;;4.83;3.57;;;;;;;;;;5014838;28;20024;-80
2021/07/27 04:32:21;;;;;;;4.43;4.00;;;;;;;;;;5022883;28;20280;-80
2021/07/27 04:34:46;;;;;;;5.70;3.72;;;;;;;;;;5033613;28;20049;-79
2021/07/27 04:37:11;;;;;;;8.68;4.35;;;;;;;;;;5034087;28;20070;-79
2021/07/27 04:39:40;;;;;;;4.47;3.63;;;;;;;;;;5033369;28;20029;-76
2021/07/27 04:42:05;;;;;;;4.07;3.67;;;;;;;;;;5028950;28;20264;-76
2021/07/27 04:44:30;;;;;;;5.00;4.03;;;;;;;;;;5033329;28;20393;-79
2021/07/27 04:46:56;;;;;;;4.20;3.80;;;;;;;;;;5033590;28;20029;-78
2021/07/27 04:49:21;;;;;;;5.50;3.70;;;;;;;;;;5032526;28;20272;-78
2021/07/27 04:51:48;;;;;;;3.70;3.40;;;;;;;;;;5033359;28;20040;-77
2021/07/27 04:54:27;;;;;;;3.95;3.65;;;;;;;;;;5028468;28;20312;-75
2021/07/27 04:56:52;;;;;;;4.75;3.80;;;;;;;;;;5034005;28;20033;-76
2021/07/27 04:59:20;;;;;;;4.50;3.88;;;;;;;;;;5034503;28;20031;-76
2021/07/27 05:01:45;;;;;;;4.55;3.92;;;;;;;;;;5032605;28;20024;-76
2021/07/27 05:04:10;;;;;;;5.72;3.90;;;;;;;;;;5034171;28;20013;-76
2021/07/27 05:06:38;;;;;;;5.00;3.83;;;;;;;;;;5034238;28;20036;-76
2021/07/27 05:09:04;;;;;;;5.10;4.10;;;;;;;;;;5032939;28;20623;-76
2021/07/27 05:11:31;;;;;;;6.28;4.00;;;;;;;;;;5033247;28;20104;-77
2021/07/27 05:13:59;;;;;;;5.78;3.65;;;;;;;;;;5032755;28;20522;-75
2021/07/27 05:16:24;;;;;;;5.40;3.72;;;;;;;;;;5031143;28;20459;-75
2021/07/27 05:18:50;;;;;;;4.20;3.80;;;;;;;;;;5021632;28;20018;-75
2021/07/27 05:21:18;;;;;;;7.20;3.80;;;;;;;;;;5026789;28;20287;-76
2021/07/27 05:23:43;;;;;;;4.55;4.10;;;;;;;;;;5027242;28;20049;-75
2021/07/27 05:26:11;;;;;;;6.40;3.72;;;;;;;;;;5022108;28;20486;-76
2021/07/27 05:28:36;;;;;;;4.85;3.92;;;;;;;;;;5012938;28;20037;-76
2021/07/27 05:31:05;;;;;;;6.07;3.87;;;;;;;;;;5023859;28;20376;-76
2021/07/27 05:33:30;;;;;;;5.38;3.85;;;;;;;;;;5023706;28;20664;-76
2021/07/27 05:35:56;;;;;;;5.05;3.90;;;;;;;;;;5022588;28;20017;-77
2021/07/27 05:38:21;;;;;;;6.47;4.32;;;;;;;;;;5031626;28;20032;-77
2021/07/27 05:40:53;;;;;;;6.77;4.77;;;;;;;;;;5033336;28;20022;-79
2021/07/27 05:43:20;;;;;;;7.68;4.13;;;;;;;;;;5032616;28;20264;-84
2021/07/27 05:45:45;;;;;;;6.13;4.22;;;;;;;;;;5031559;28;20033;-76
2021/07/27 05:48:11;;;;;;;5.20;4.07;;;;;;;;;;5033506;28;20445;-78
2021/07/27 05:50:38;;;;;;;8.27;4.47;;;;;;;;;;5017116;28;20349;-77
2021/07/27 05:53:04;;;;;;;8.63;4.30;;;;;;;;;;5022094;28;20286;-77
2021/07/27 05:55:31;;;;;;;4.43;3.90;;;;;;;;;;5024936;28;20089;-77
2021/07/27 05:57:56;;;;;;;4.50;3.85;;;;;;;;;;5029323;28;20379;-77
2021/07/27 06:00:21;;;;;;;5.43;3.78;;;;;;;;;;5030875;28;20109;-77
2021/07/27 06:02:47;;;;;;;4.72;4.15;;;;;;;;;;5032694;28;20041;-77
2021/07/27 06:05:12;;;;;;;4.57;3.90;;;;;;;;;;5031931;28;20036;-77
2021/07/27 06:07:37;;;;;;;5.43;4.25;;;;;;;;;;5032918;28;20265;-77
2021/07/27 06:10:03;;;;;;;4.47;3.90;;;;;;;;;;5013024;28;20040;-77
2021/07/27 06:12:30;;;;;;;5.10;4.25;;;;;;;;;;5028723;28;20033;-76
2021/07/27 06:14:55;;;;;;;6.70;3.80;;;;;;;;;;5032202;28;20025;-77
2021/07/27 06:17:20;;;;;;;6.80;3.90;;;;;;;;;;5032978;28;20365;-77
2021/07/27 06:19:46;;;;;;;4.20;3.73;;;;;;;;;;5033289;28;20252;-77
2021/07/27 06:22:11;;;;;;;4.77;4.00;;;;;;;;;;5022340;28;20730;-77
2021/07/27 06:24:39;;;;;;;5.72;4.15;;;;;;;;;;5013500;28;20245;-77
2021/07/27 06:27:06;;;;;;;5.97;3.75;;;;;;;;;;5016700;28;20026;-77
2021/07/27 06:29:32;;;;;;;5.80;3.90;;;;;;;;;;5012972;28;20021;-77
2021/07/27 06:31:57;;;;;;;5.13;4.22;;;;;;;;;;5012515;28;20360;-77
2021/07/27 06:34:24;;;;;;;4.03;3.50;;;;;;;;;;5012810;28;20053;-77
2021/07/27 06:36:49;;;;;;;4.47;3.58;;;;;;;;;;5028965;28;20768;-77
2021/07/27 06:39:17;;;;;;;5.40;3.80;;;;;;;;;;5027254;28;20053;-77
2021/07/27 06:41:42;;;;;;;4.15;3.55;;;;;;;;;;5035141;28;20276;-77
2021/07/27 06:44:10;;;;;;;8.20;4.00;;;;;;;;;;5036075;28;20017;-77
2021/07/27 06:46:35;;;;;;;4.10;3.65;;;;;;;;;;5036630;28;20398;-77
2021/07/27 06:49:00;;;;;;;4.00;3.60;;;;;;;;;;5027999;28;20075;-77
2021/07/27 06:51:26;;;;;;;5.10;3.70;;;;;;;;;;5016747;28;20537;-77
2021/07/27 06:53:51;;;;;;;4.88;3.72;;;;;;;;;;5031521;28;20036;-77
2021/07/27 06:56:16;;;;;;;6.60;3.80;;;;;;;;;;5035588;28;20072;-77
2021/07/27 06:58:41;;;;;;;5.30;3.70;;;;;;;;;;5029340;28;20022;-77
2021/07/27 07:01:08;;;;;;;6.32;4.20;;;;;;;;;;5015797;28;20392;-76
2021/07/27 07:03:34;;;;;;;6.57;4.03;;;;;;;;;;5020671;28;20018;-77
2021/07/27 07:05:59;;;;;;;4.63;3.95;;;;;;;;;;5035409;28;20033;-76
2021/07/27 07:08:24;;;;;;;5.50;3.73;;;;;;;;;;5036280;28;20036;-76
2021/07/27 07:10:56;;;;;;;4.45;3.90;;;;;;;;;;5036482;28;20271;-76
2021/07/27 07:13:21;;;;;;;5.28;3.63;;;;;;;;;;5035546;28;20059;-76
2021/07/27 07:15:47;;;;;;;6.28;3.95;;;;;;;;;;5035923;28;20029;-76
2021/07/27 07:18:12;;;;;;;5.00;3.87;;;;;;;;;;5026232;28;20034;-76
2021/07/27 07:20:37;;;;;;;3.97;3.57;;;;;;;;;;5016217;28;20368;-76
2021/07/27 07:23:02;;;;;;;4.60;3.50;;;;;;;;;;5023007;28;20300;-76
2021/07/27 07:25:28;;;;;;;6.22;3.50;;;;;;;;;;5035298;28;21225;-76
2021/07/27 07:27:53;;;;;;;6.20;4.00;;;;;;;;;;5031340;28;20032;-76
2021/07/27 07:30:18;;;;;;;4.82;3.28;;;;;;;;;;5034934;28;20264;-76
2021/07/27 07:32:43;;;;;;;3.95;3.55;;;;;;;;;;5027940;28;20079;-76
2021/07/27 07:35:09;;;;;;;6.25;3.53;;;;;;;;;;5030908;28;20057;-76
2021/07/27 07:37:37;;;;;;;5.25;4.05;;;;;;;;;;5031970;28;20051;-77
2021/07/27 07:40:02;;;;;;;4.05;3.53;;;;;;;;;;5034560;28;20440;-77
2021/07/27 07:42:27;;;;;;;7.00;4.60;;;;;;;;;;5031717;28;20029;-73
2021/07/27 07:44:55;;;;;;;6.75;5.60;;;;;;;;;;5027632;28;20061;-76
2021/07/27 07:47:20;;;;;;;5.32;4.20;;;;;;;;;;5026079;28;20060;-76
2021/07/27 07:49:45;;;;;;;7.43;3.72;;;;;;;;;;5032924;28;20013;-76
2021/07/27 07:52:10;;;;;;;5.80;4.13;;;;;;;;;;5034746;28;20422;-76
2021/07/27 07:54:36;;;;;;;4.47;4.07;;;;;;;;;;5033939;28;20274;-75
2021/07/27 07:57:01;;;;;;;6.40;3.88;;;;;;;;;;5022179;28;20029;-75
2021/07/27 07:59:26;;;;;;;5.30;3.88;;;;;;;;;;5026479;28;20017;-76
2021/07/27 08:01:56;;;;;;;5.07;4.03;;;;;;;;;;5034000;28;20384;-75
2021/07/27 08:04:21;;;;;;;10.18;5.70;;;;;;;;;;5034830;28;20347;-76
2021/07/27 08:06:49;;;;;;;5.57;4.30;;;;;;;;;;5034543;28;20032;-76
2021/07/27 08:09:14;;;;;;;7.30;4.10;;;;;;;;;;5033790;28;20049;-76
2021/07/27 08:11:40;;;;;;;8.57;3.83;;;;;;;;;;5021474;28;20026;-75
2021/07/27 08:14:05;;;;;;;5.10;3.92;;;;;;;;;;5033171;28;20386;-76
2021/07/27 08:16:31;;;;;;;5.03;4.17;;;;;;;;;;5034709;28;20108;-76
2021/07/27 08:18:56;;;;;;;4.63;3.70;;;;;;;;;;5035101;28;20256;-76
2021/07/27 08:21:22;;;;;;;8.20;4.50;;;;;;;;;;5034173;28;20026;-76
2021/07/27 08:23:48;;;;;;;7.68;4.72;;;;;;;;;;5034838;28;20136;-76
2021/07/27 08:26:14;;;;;;;6.47;4.50;;;;;;;;;;5033947;28;20064;-76
2021/07/27 08:28:39;;;;;;;9.98;7.75;;;;;;;;;;5033734;28;20139;-76
2021/07/27 08:31:05;;;;;;;8.85;5.25;;;;;;;;;;5034425;28;20025;-76
2021/07/27 08:33:32;;;;;;;5.45;4.70;;;;;;;;;;5027323;28;20030;-75
2021/07/27 08:35:57;;;;;;;11.25;5.22;;;;;;;;;;5025436;28;20026;-76
2021/07/27 08:38:23;;;;;;;12.47;7.10;;;;;;;;;;5032196;28;20078;-77
2021/07/27 08:40:49;;;;;;;6.28;4.10;;;;;;;;;;5032445;28;20452;-76
2021/07/27 08:43:15;;;;;;;6.43;4.00;;;;;;;;;;5032751;28;20025;-76
2021/07/27 08:45:41;;;;;;;5.60;4.32;;;;;;;;;;5030044;28;20018;-76
2021/07/27 08:48:06;;;;;;;6.38;4.32;;;;;;;;;;5027815;28;20022;-76
2021/07/27 08:50:34;;;;;;;5.90;4.60;;;;;;;;;;5032176;28;20172;-76
2021/07/27 08:53:00;;;;;;;5.57;4.13;;;;;;;;;;5034183;28;20043;-76
2021/07/27 08:55:25;;;;;;;8.75;5.05;;;;;;;;;;5029348;28;20032;-76
2021/07/27 08:57:55;;;;;;;9.48;4.85;;;;;;;;;;5033855;28;20017;-76
2021/07/27 09:00:20;;;;;;;7.80;4.80;;;;;;;;;;5033347;28;20017;-76
2021/07/27 09:02:48;;;;;;;6.45;4.35;;;;;;;;;;5034044;28;20100;-76
2021/07/27 09:05:13;;;;;;;8.52;4.72;;;;;;;;;;5030763;28;20040;-76
2021/07/27 09:07:44;;;;;;;6.47;4.80;;;;;;;;;;5032992;28;20047;-76
2021/07/27 09:10:16;;;;;;;10.30;5.78;;;;;;;;;;5029489;28;20372;-76
2021/07/27 09:13:01;;;;;;;6.30;4.82;;;;;;;;;;5030657;28;20033;-76
2021/07/27 09:15:27;;;;;;;8.05;4.60;;;;;;;;;;5031201;28;20029;-76
2021/07/27 09:17:56;;;;;;;7.03;4.97;;;;;;;;;;5033607;28;20042;-76
2021/07/27 09:20:27;;;;;;;7.18;4.88;;;;;;;;;;5033984;28;20400;-76
2021/07/27 09:22:55;;;;;;;7.63;5.18;;;;;;;;;;5033507;28;20033;-76
2021/07/27 09:25:26;;;;;;;5.45;4.82;;;;;;;;;;5028143;28;20025;-76
2021/07/27 09:28:05;;;;;;;8.93;4.97;;;;;;;;;;5022173;28;20129;-76
2021/07/27 09:30:31;;;;;;;12.38;5.68;;;;;;;;;;5026602;28;20335;-76
2021/07/27 09:32:58;;;;;;;9.27;5.40;;;;;;;;;;5024254;28;20096;-76
2021/07/27 09:35:23;;;;;;;9.10;5.22;;;;;;;;;;5032749;28;20052;-76
2021/07/27 09:38:05;;;;;;;6.60;5.20;;;;;;;;;;5018826;28;20066;-76
2021/07/27 09:40:31;;;;;;;7.20;5.22;;;;;;;;;;5018310;28;20029;-76
2021/07/27 09:42:56;;;;;;;9.75;5.47;;;;;;;;;;5033298;28;20104;-76
2021/07/27 09:45:26;;;;;;;12.95;5.90;;;;;;;;;;5028815;28;21186;-76
2021/07/27 09:47:54;;;;;;;11.73;5.45;;;;;;;;;;5024563;28;20025;-76
2021/07/27 09:50:21;;;;;;;9.68;5.63;;;;;;;;;;5032915;28;20352;-76
2021/07/27 09:52:46;;;;;;;9.88;5.60;;;;;;;;;;5032122;28;20029;-76
2021/07/27 09:55:12;;;;;;;5.87;5.27;;;;;;;;;;5033405;28;20021;-76
2021/07/27 09:57:38;;;;;;;10.23;6.30;;;;;;;;;;5033344;28;20025;-76
2021/07/27 10:00:03;;;;;;;7.83;5.40;;;;;;;;;;5016509;28;20053;-76
2021/07/27 10:02:29;;;;;;;7.47;5.30;;;;;;;;;;5013341;28;20580;-76
2021/07/27 10:04:55;;;;;;;8.27;5.20;;;;;;;;;;5031653;28;20356;-76
2021/07/27 10:07:28;;;;;;;7.07;5.20;;;;;;;;;;5031405;28;20017;-76
2021/07/27 10:10:03;;;;;;;11.63;7.72;;;;;;;;;;5026956;28;20025;-76
2021/07/27 10:12:32;;;;;;;16.02;13.30;;;;;;;;;;5036549;28;20447;-76
2021/07/27 10:15:07;;;;;;;9.30;7.38;;;;;;;;;;5037130;28;20032;-76
2021/07/27 10:17:33;;;;;;;8.73;5.40;;;;;;;;;;5032178;28;20033;-76
2021/07/27 10:19:58;;;;;;;7.57;5.23;;;;;;;;;;5036071;28;20459;-76
2021/07/27 10:22:32;;;;;;;7.80;5.07;;;;;;;;;;5037111;28;20021;-76
2021/07/27 10:24:58;;;;;;;8.90;5.60;;;;;;;;;;5036255;28;20021;-76
2021/07/27 10:27:25;;;;;;;6.72;4.90;;;;;;;;;;5028501;28;20084;-76
2021/07/27 10:29:51;;;;;;;7.13;4.68;;;;;;;;;;5017181;28;20507;-76
2021/07/27 10:32:16;;;;;;;7.63;4.93;;;;;;;;;;5017120;28;20064;-76
2021/07/27 10:34:43;;;;;;;9.73;6.23;;;;;;;;;;5023848;28;20042;-76
2021/07/27 10:37:08;;;;;;;10.50;8.20;;;;;;;;;;5036375;28;20345;-76
2021/07/27 10:39:44;;;;;;;6.47;5.75;;;;;;;;;;5036490;28;20100;-77
2021/07/27 10:42:10;;;;;;;7.22;5.65;;;;;;;;;;5030851;28;20017;-76
2021/07/27 10:44:36;;;;;;;5.70;4.63;;;;;;;;;;5036600;28;20633;-76
2021/07/27 10:47:02;;;;;;;6.95;4.60;;;;;;;;;;5035952;28;20087;-76
2021/07/27 10:49:27;;;;;;;7.95;4.80;;;;;;;;;;5034090;28;20483;-76
2021/07/27 10:51:56;;;;;;;5.97;4.47;;;;;;;;;;5036374;28;20068;-76
2021/07/27 10:54:31;;;;;;;7.95;4.35;;;;;;;;;;5036365;28;20432;-76
2021/07/27 10:56:57;;;;;;;;;;;;;;;;;;5036983;28;20021;-76
2021/07/27 10:59:26;;;;;;;6.47;4.45;;;;;;;;;;5027114;28;19927;-77
2021/07/27 11:01:56;;;;;;;5.38;4.30;;;;;;;;;;5032558;28;20021;-76
2021/07/27 11:04:28;;;;;;;8.70;4.85;;;;;;;;;;5035816;28;20096;-76
2021/07/27 11:07:05;;;;;;;7.05;4.78;;;;;;;;;;5031439;28;20029;-76
2021/07/27 11:09:30;;;;;;;5.05;4.47;;;;;;;;;;5030033;28;20021;-76
2021/07/27 11:11:55;;;;;;;6.40;4.55;;;;;;;;;;5035541;28;20033;-76
2021/07/27 11:14:21;;;;;;;7.63;4.43;;;;;;;;;;5035340;28;20104;-76
2021/07/27 11:16:47;;;;;;;10.70;4.70;;;;;;;;;;5035756;28;20491;-76
2021/07/27 11:19:32;;;;;;;4.53;3.72;;;;;;;;;;5035220;28;20029;-76
2021/07/27 11:21:58;;;;;;;;;;;;;;;;;;5032682;28;20451;-76
2021/07/27 11:24:24;;;;;;;10.52;4.70;;;;;;;;;;5035143;28;20362;-76
2021/07/27 11:26:52;;;;;;;10.65;4.22;;;;;;;;;;5035902;28;20037;-76
2021/07/27 11:29:18;;;;;;;4.07;3.67;;;;;;;;;;5034259;28;20021;-76
2021/07/27 11:31:45;;;;;;;4.35;3.70;;;;;;;;;;5035828;28;20104;-76
2021/07/27 11:34:10;;;;;;;5.57;3.70;;;;;;;;;;5034210;28;20047;-76
2021/07/27 11:36:35;;;;;;;4.40;3.30;;;;;;;;;;5035455;28;20407;-76
2021/07/27 11:39:04;;;;;;;5.73;4.00;;;;;;;;;;5035669;28;20175;-76
2021/07/27 11:41:35;;;;;;;10.88;3.90;;;;;;;;;;5034433;28;20051;-75
2021/07/27 11:44:02;;;;;;;7.95;3.85;;;;;;;;;;5035516;28;20031;-80
2021/07/27 11:46:31;;;;;;;8.23;4.50;;;;;;;;;;5033978;28;20022;-77
2021/07/27 11:48:56;;;;;;;6.90;4.43;;;;;;;;;;5035756;28;20025;-77
2021/07/27 11:51:31;;;;;;;6.97;4.10;;;;;;;;;;5035555;28;20032;-76
2021/07/27 11:53:57;;;;;;;7.00;4.43;;;;;;;;;;5034035;28;20569;-76
2021/07/27 11:56:23;;;;;;;13.07;5.40;;;;;;;;;;5023160;28;20062;-77
2021/07/27 11:58:49;;;;;;;6.13;4.45;;;;;;;;;;5020610;28;20021;-77
2021/07/27 12:01:14;;;;;;;5.22;3.75;;;;;;;;;;5035227;28;20466;-77
2021/07/27 12:03:40;;;;;;;7.20;3.70;;;;;;;;;;5029349;28;20365;-77
2021/07/27 12:06:12;;;;;;;6.28;3.90;;;;;;;;;;5028813;28;20344;-77
2021/07/27 12:08:40;;;;;;;4.63;3.55;;;;;;;;;;5034953;28;20018;-76
2021/07/27 12:11:09;;;;;;;4.78;3.85;;;;;;;;;;5032283;28;20028;-76
2021/07/27 12:13:34;;;;;;;7.45;4.25;;;;;;;;;;5031119;28;20367;-76
2021/07/27 12:15:59;;;;;;;6.22;4.47;;;;;;;;;;5034120;28;20051;-76
2021/07/27 12:18:25;;;;;;;8.40;4.77;;;;;;;;;;5034044;28;20018;-76
2021/07/27 12:20:50;;;;;;;6.53;4.35;;;;;;;;;;5034232;28;20260;-76
2021/07/27 12:23:18;;;;;;;8.90;4.20;;;;;;;;;;5033107;28;20356;-76
2021/07/27 12:25:43;;;;;;;4.93;3.88;;;;;;;;;;5034131;28;20017;-76
2021/07/27 12:28:09;;;;;;;7.60;4.30;;;;;;;;;;5028617;28;20025;-76
2021/07/27 12:30:36;;;;;;;5.83;4.40;;;;;;;;;;5028364;28;20031;-76
2021/07/27 12:33:01;;;;;;;8.95;4.93;;;;;;;;;;5028808;28;20260;-76
2021/07/27 12:35:29;;;;;;;6.93;4.82;;;;;;;;;;5033166;28;20037;-76
2021/07/27 12:38:00;;;;;;;7.95;4.78;;;;;;;;;;5030111;28;20037;-76
2021/07/27 12:40:28;;;;;;;5.13;4.30;;;;;;;;;;5035594;28;20025;-77
2021/07/27 12:42:53;;;;;;;7.22;3.85;;;;;;;;;;5014097;28;20547;-76
2021/07/27 12:45:54;;;;;;;4.32;3.70;;;;;;;;;;5028998;28;20100;-77
2021/07/27 12:48:19;;;;;;;6.28;4.55;;;;;;;;;;5042102;28;20026;-77
2021/07/27 12:50:44;;;;;;;6.68;4.68;;;;;;;;;;5034219;28;20096;-76
2021/07/27 12:53:10;;;;;;;8.03;4.00;;;;;;;;;;5032118;28;20352;-76
2021/07/27 12:55:36;;;;;;;6.40;4.40;;;;;;;;;;5040374;28;20252;-77
2021/07/27 12:58:01;;;;;;;6.40;3.83;;;;;;;;;;5028426;28;20369;-76
2021/07/27 13:00:30;;;;;;;5.47;4.13;;;;;;;;;;5033975;28;20256;-76
2021/07/27 13:02:59;;;;;;;4.35;3.70;;;;;;;;;;5028581;28;20083;-76
2021/07/27 13:05:25;;;;;;;5.57;3.58;;;;;;;;;;5026902;28;20056;-77
2021/07/27 13:07:52;;;;;;;3.75;3.40;;;;;;;;;;5024855;28;20042;-76
2021/07/27 13:21:33;;;;;;;4.10;3.67;;;;;;;;;;5279726;22;20060;-90
2021/07/27 13:24:03;;;;;;;5.10;3.83;;;;;;;;;;5073941;28;20043;-88
2021/07/27 13:26:29;;;;;;;6.60;4.07;;;;;;;;;;5063113;28;20271;-92
2021/07/27 13:28:54;;;;;;;4.75;3.55;;;;;;;;;;5055905;28;20021;-94
2021/07/27 13:31:21;;;;;;;6.23;3.87;;;;;;;;;;5077416;28;20074;-95
2021/07/27 13:33:50;;;;;;;3.88;3.42;;;;;;;;;;5059726;28;20025;-96
2021/07/27 13:36:15;;;;;;;6.13;3.10;;;;;;;;;;5067746;28;20063;-96
2021/07/27 13:38:42;;;;;;;6.07;3.75;;;;;;;;;;5074085;28;20016;-96
2021/07/27 13:41:12;;;;;;;5.22;3.60;;;;;;;;;;5066506;28;20096;-96
2021/07/27 13:43:39;;;;;;;6.90;3.75;;;;;;;;;;5059526;28;20594;-96
2021/07/27 13:46:07;;;;;;;5.03;3.42;;;;;;;;;;5048246;28;20029;-96
2021/07/27 13:48:34;;;;;;;5.20;3.58;;;;;;;;;;5075445;28;20001;-96
2021/07/27 13:51:00;;;;;;;6.18;3.03;;;;;;;;;;5083709;28;20024;-96
2021/07/27 13:53:25;;;;;;;4.97;3.30;;;;;;;;;;5086432;28;20049;-96
2021/07/27 13:55:50;;;;;;;3.57;3.27;;;;;;;;;;5082199;28;20327;-96
2021/07/27 13:58:15;;;;;;;4.37;3.20;;;;;;;;;;5075024;28;20274;-94
2021/07/27 14:00:40;;;;;;;6.90;3.30;;;;;;;;;;5067147;28;20259;-94
2021/07/27 14:03:06;;;;;;;4.33;3.53;;;;;;;;;;5054754;28;20259;-92
2021/07/27 14:05:31;;;;;;;4.67;3.60;;;;;;;;;;5056245;28;20657;-84
2021/07/27 14:08:01;;;;;;;3.97;3.50;;;;;;;;;;5055146;28;20717;-92
2021/07/27 14:10:26;;;;;;;5.03;3.72;;;;;;;;;;5070787;28;20031;-92
2021/07/27 14:12:51;;;;;;;6.80;4.20;;;;;;;;;;5051389;28;20024;-93
2021/07/27 14:15:17;;;;;;;7.80;6.10;;;;;;;;;;5055739;28;20374;-94
2021/07/27 14:17:44;;;;;;;7.30;4.93;;;;;;;;;;5067426;28;20108;-75
2021/07/27 14:20:10;;;;;;;7.05;4.78;;;;;;;;;;5051528;28;20047;-75
2021/07/27 14:22:37;;;;;;;5.28;4.50;;;;;;;;;;5066237;28;20021;-75
2021/07/27 14:25:04;;;;;;;6.85;4.43;;;;;;;;;;5061643;28;20043;-75
2021/07/27 14:27:30;;;;;;;4.90;4.18;;;;;;;;;;5072805;28;20443;-75
2021/07/27 14:29:55;;;;;;;5.33;4.37;;;;;;;;;;5054456;28;20025;-75
2021/07/27 14:32:20;;;;;;;6.50;5.80;;;;;;;;;;5089013;28;20320;-75
2021/07/27 14:34:45;;;;;;;7.03;5.37;;;;;;;;;;5073035;28;20033;-75
2021/07/27 14:37:10;;;;;;;5.43;4.70;;;;;;;;;;5064140;28;20054;-75
2021/07/27 14:39:36;;;;;;;5.60;3.83;;;;;;;;;;5072745;28;20266;-75
2021/07/27 14:42:01;;;;;;;6.77;3.43;;;;;;;;;;5071971;28;20277;-75
2021/07/27 14:44:26;;;;;;;5.63;3.20;;;;;;;;;;5084843;28;20278;-75
2021/07/27 14:46:51;;;;;;;7.28;3.60;;;;;;;;;;5075717;28;20416;-75
2021/07/27 14:49:17;;;;;;;5.18;3.70;;;;;;;;;;5074835;28;20009;-75
2021/07/27 14:51:42;;;;;;;4.57;3.90;;;;;;;;;;5093054;28;20604;-75
2021/07/27 14:54:07;;;;;;;5.60;3.77;;;;;;;;;;5090287;28;20023;-75
2021/07/27 14:56:35;;;;;;;4.90;4.15;;;;;;;;;;5053960;28;20275;-75
2021/07/27 14:59:01;;;;;;;3.85;3.45;;;;;;;;;;5061349;28;20574;-75
2021/07/27 15:01:28;;;;;;;3.92;3.50;;;;;;;;;;5096825;28;20099;-75
2021/07/27 15:03:56;;;;;;;5.00;3.55;;;;;;;;;;5096785;28;20099;-75
2021/07/27 15:06:22;;;;;;;5.32;3.22;;;;;;;;;;5070898;28;20471;-75
2021/07/27 15:08:47;;;;;;;5.40;3.35;;;;;;;;;;5065923;28;20025;-75
2021/07/27 15:11:13;;;;;;;5.43;3.40;;;;;;;;;;5056074;28;20059;-75
2021/07/27 15:13:38;;;;;;;5.33;3.40;;;;;;;;;;5038054;28;20029;-75